Observation data for Pampa on 12/09/2018      Previous  Date       Current Mesonet Observations  Soil Data  Daily Summary Page  Observations in Plain Language
KPMS 090600Z 31003KT M05/M11 A303 RMK A01 T10471112  RH  061%=      5-min Rain = 0
KPMS 090605Z 31003KT M05/M12 A303 RMK A01 T10451115  RH  059%=      5-min Rain = 0
KPMS 090610Z 32003KT M04/M12 A303 RMK A01 T10441117  RH  057%=      5-min Rain = 0
KPMS 090615Z 33003KT M05/M12 A303 RMK A01 T10461117  RH  059%=      5-min Rain = 0
KPMS 090620Z 33003KT M05/M12 A303 RMK A01 T10521115  RH  062%=      5-min Rain = 0
KPMS 090625Z 34003KT M06/M12 A303 RMK A01 T10551118  RH  062%=      5-min Rain = 0
KPMS 090630Z 35003KT M06/M12 A303 RMK A01 T10561120  RH  062%=      5-min Rain = 0
KPMS 090635Z 36004KT M06/M12 A3029 RMK A01 T10561121  RH  061%=      5-min Rain = 0
KPMS 090640Z 00004KT M05/M12 A3029 RMK A01 T10541122  RH  060%=      5-min Rain = 0
KPMS 090645Z 35003KT M06/M12 A3029 RMK A01 T10551122  RH  060%=      5-min Rain = 0
KPMS 090650Z 35003KT M06/M12 A3029 RMK A01 T10591123  RH  061%=      5-min Rain = 0
KPMS 090655Z 32003KT M06/M12 A3029 RMK A01 T10611122  RH  063%=      5-min Rain = 0
KPMS 090700Z 31003KT M06/M12 A3029 RMK A01 T10621121  RH  064%=      5-min Rain = 0
KPMS 090705Z 31002KT M06/M11 A3029 RMK A01 T10591108  RH  069%=      5-min Rain = 0
KPMS 090710Z 30002KT M06/M11 A3029 RMK A01 T10561112  RH  066%=      5-min Rain = 0
KPMS 090715Z 28003KT M06/M12 A3029 RMK A01 T10551115  RH  064%=      5-min Rain = 0
KPMS 090720Z 27003KT M05/M12 A3029 RMK A01 T10541116  RH  062%=      5-min Rain = 0
KPMS 090725Z 27003KT M05/M12 A3029 RMK A01 T10521117  RH  061%=      5-min Rain = 0
KPMS 090730Z 26004KT M05/M12 A3029 RMK A01 T10541116  RH  062%=      5-min Rain = 0
KPMS 090735Z 28004KT M05/M12 A3029 RMK A01 T10531116  RH  062%=      5-min Rain = 0
KPMS 090740Z 28004KT M06/M12 A3029 RMK A01 T10551117  RH  063%=      5-min Rain = 0
KPMS 090745Z 28004KT M06/M11 A3029 RMK A01 T10591113  RH  067%=      5-min Rain = 0
KPMS 090750Z 30004KT M06/M11 A3029 RMK A01 T10591113  RH  066%=      5-min Rain = 0
KPMS 090755Z 31005KT M06/M11 A3029 RMK A01 T10601114  RH  067%=      5-min Rain = 0
KPMS 090800Z 31005KT M06/M11 A3029 RMK A01 T10611114  RH  067%=      5-min Rain = 0
KPMS 090805Z 31005KT M06/M12 A3029 RMK A01 T10621116  RH  067%=      5-min Rain = 0
KPMS 090810Z 32004KT M06/M12 A3029 RMK A01 T10621116  RH  067%=      5-min Rain = 0
KPMS 090815Z 32005KT M06/M12 A3029 RMK A01 T10641118  RH  067%=      5-min Rain = 0
KPMS 090820Z 32006KT M07/M12 A3029 RMK A01 T10681119  RH  068%=      5-min Rain = 0
KPMS 090825Z 33007KT M07/M12 A3029 RMK A01 T10721119  RH  070%=      5-min Rain = 0
KPMS 090830Z 33008KT M07/M12 A3029 RMK A01 T10721115  RH  073%=      5-min Rain = 0
KPMS 090835Z 34009KT M07/M11 A3029 RMK A01 T10651111  RH  071%=      5-min Rain = 0
KPMS 090840Z 34009KT M06/M11 A3029 RMK A01 T10601110  RH  068%=      5-min Rain = 0
KPMS 090845Z 33008KT M06/M11 A3029 RMK A01 T10601111  RH  068%=      5-min Rain = 0
KPMS 090850Z 33006KT M06/M11 A3029 RMK A01 T10611110  RH  069%=      5-min Rain = 0
KPMS 090855Z 31003KT M06/M11 A3029 RMK A01 T10641112  RH  070%=      5-min Rain = 0
KPMS 090900Z 27002KT M07/M11 A3029 RMK A01 T10651113  RH  070%=      5-min Rain = 0
KPMS 090905Z 29004KT M06/M11 A303 RMK A01 T10621112  RH  069%=      5-min Rain = 0
KPMS 090910Z 28003KT M06/M11 A303 RMK A01 T10601110  RH  069%=      5-min Rain = 0
KPMS 090915Z 26002KT M06/M11 A303 RMK A01 T10611113  RH  067%=      5-min Rain = 0
KPMS 090920Z 27002KT M06/M11 A3029 RMK A01 T10621113  RH  068%=      5-min Rain = 0
KPMS 090925Z 29004KT M06/M12 A3029 RMK A01 T10611115  RH  066%=      5-min Rain = 0
KPMS 090930Z 30006KT M06/M11 A3029 RMK A01 T10601114  RH  067%=      5-min Rain = 0
KPMS 090935Z 31006KT M06/M11 A3029 RMK A01 T10641114  RH  069%=      5-min Rain = 0
KPMS 090940Z 31006KT M07/M11 A3029 RMK A01 T10671110  RH  072%=      5-min Rain = 0
KPMS 090945Z 31006KT M07/M11 A3029 RMK A01 T10691105  RH  076%=      5-min Rain = 0
KPMS 090950Z 31007KT M06/M10 A3029 RMK A01 T10641099  RH  077%=      5-min Rain = 0
KPMS 090955Z 31006KT M07/M10 A3029 RMK A01 T10661099  RH  078%=      5-min Rain = 0
KPMS 091000Z 31006KT M07/M10 A3029 RMK A01 T10691098  RH  080%=      5-min Rain = 0
KPMS 091005Z 31005KT M07/M10 A3029 RMK A01 T10701098  RH  081%=      5-min Rain = 0
KPMS 091010Z 32003KT M07/M10 A3029 RMK A01 T10701098  RH  081%=      5-min Rain = 0
KPMS 091015Z 32003KT M07/M10 A3029 RMK A01 T10681097  RH  081%=      5-min Rain = 0
KPMS 091020Z 32003KT M07/M10 A3029 RMK A01 T10691098  RH  081%=      5-min Rain = 0
KPMS 091025Z 32003KT M07/M10 A3029 RMK A01 T10671097  RH  080%=      5-min Rain = 0
KPMS 091030Z 33004KT M07/M10 A3029 RMK A01 T10671098  RH  079%=      5-min Rain = 0
KPMS 091035Z 33004KT M07/M10 A3029 RMK A01 T10691101  RH  079%=      5-min Rain = 0
KPMS 091040Z 33004KT M07/M10 A3029 RMK A01 T10701100  RH  080%=      5-min Rain = 0
KPMS 091045Z 32004KT M07/M10 A3029 RMK A01 T10691099  RH  080%=      5-min Rain = 0
KPMS 091050Z 31005KT M07/M10 A3029 RMK A01 T10691100  RH  080%=      5-min Rain = 0
KPMS 091055Z 31007KT M07/M10 A3029 RMK A01 T10671098  RH  080%=      5-min Rain = 0
KPMS 091100Z 30007KT M06/M10 A3029 RMK A01 T10631097  RH  078%=      5-min Rain = 0
KPMS 091105Z 29005KT M06/M10 A3029 RMK A01 T10621097  RH  077%=      5-min Rain = 0
KPMS 091110Z 29005KT M06/M09 A303 RMK A01 T10601094  RH  078%=      5-min Rain = 0
KPMS 091115Z 29006KT M06/M09 A3029 RMK A01 T10591092  RH  078%=      5-min Rain = 0
KPMS 091120Z 29007KT M06/M09 A303 RMK A01 T10571088  RH  080%=      5-min Rain = 0
KPMS 091125Z 30007KT M06/M09 A303 RMK A01 T10571085  RH  082%=      5-min Rain = 0
KPMS 091130Z 30006KT M06/M09 A3029 RMK A01 T10571085  RH  082%=      5-min Rain = 0
KPMS 091135Z 30006KT M06/M09 A3029 RMK A01 T10591087  RH  081%=      5-min Rain = 0
KPMS 091140Z 30007KT M06/M09 A3029 RMK A01 T10601088  RH  082%=      5-min Rain = 0
KPMS 091145Z 31007KT M06/M09 A3029 RMK A01 T10641091  RH  082%=      5-min Rain = 0
KPMS 091150Z 31008KT M07/M09 A3029 RMK A01 T10651090  RH  083%=      5-min Rain = 0
KPMS 091155Z 31008KT M07/M09 A3029 RMK A01 T10651091  RH  083%=      5-min Rain = 0
KPMS 091200Z 31008KT M07/M09 A3029 RMK A01 T10651091  RH  083%=      5-min Rain = 0
KPMS 091205Z 31008KT M06/M09 A3029 RMK A01 T10641091  RH  082%=      5-min Rain = 0
KPMS 091210Z 31008KT M06/M09 A3029 RMK A01 T10631092  RH  081%=      5-min Rain = 0
KPMS 091215Z 31008KT M06/M09 A3029 RMK A01 T10621093  RH  080%=      5-min Rain = 0
KPMS 091220Z 31009KT M06/M09 A303 RMK A01 T10621093  RH  080%=      5-min Rain = 0
KPMS 091225Z 32009KT M06/M09 A303 RMK A01 T10621094  RH  079%=      5-min Rain = 0
KPMS 091230Z 32008KT M06/M10 A303 RMK A01 T10621095  RH  079%=      5-min Rain = 0
KPMS 091235Z 31008KT M06/M10 A303 RMK A01 T10611096  RH  077%=      5-min Rain = 0
KPMS 091240Z 31008KT M06/M10 A303 RMK A01 T10611095  RH  078%=      5-min Rain = 0
KPMS 091245Z 31008KT M06/M10 A303 RMK A01 T10641096  RH  079%=      5-min Rain = 0
KPMS 091250Z 31008KT M06/M09 A303 RMK A01 T10631094  RH  079%=      5-min Rain = 0
KPMS 091255Z 31008KT M06/M10 A303 RMK A01 T10641095  RH  080%=      5-min Rain = 0
KPMS 091300Z 30009KT M07/M09 A303 RMK A01 T10661094  RH  081%=      5-min Rain = 0
KPMS 091305Z 30009KT M06/M09 A3031 RMK A01 T10621091  RH  081%=      5-min Rain = 0
KPMS 091310Z 30010KT M06/M09 A3031 RMK A01 T10601089  RH  080%=      5-min Rain = 0
KPMS 091315Z 30010KT M06/M09 A3031 RMK A01 T10581088  RH  080%=      5-min Rain = 0
KPMS 091320Z 30010KT M06/M09 A3032 RMK A01 T10591087  RH  082%=      5-min Rain = 0
KPMS 091325Z 30010KT M06/M09 A3032 RMK A01 T10591086  RH  082%=      5-min Rain = 0
KPMS 091330Z 30010KT M06/M09 A3032 RMK A01 T10581087  RH  081%=      5-min Rain = 0
KPMS 091335Z 30010KT M06/M09 A3032 RMK A01 T10591089  RH  080%=      5-min Rain = 0
KPMS 091340Z 30010KT M06/M09 A3032 RMK A01 T10581090  RH  079%=      5-min Rain = 0
KPMS 091345Z 30010KT M06/M09 A3032 RMK A01 T10571091  RH  078%=      5-min Rain = 0
KPMS 091350Z 30009KT M06/M09 A3032 RMK A01 T10571092  RH  077%=      5-min Rain = 0
KPMS 091355Z 30008KT M06/M09 A3032 RMK A01 T10561091  RH  077%=      5-min Rain = 0
KPMS 091400Z 30008KT M06/M09 A3032 RMK A01 T10561090  RH  078%=      5-min Rain = 0
KPMS 091405Z 30009KT M05/M09 A3033 RMK A01 T10541089  RH  078%=      5-min Rain = 0
KPMS 091410Z 30008KT M05/M09 A3033 RMK A01 T10541088  RH  078%=      5-min Rain = 0
KPMS 091415Z 30008KT M05/M09 A3033 RMK A01 T10531087  RH  078%=      5-min Rain = 0
KPMS 091420Z 30008KT M05/M08 A3033 RMK A01 T10521084  RH  079%=      5-min Rain = 0
KPMS 091425Z 30008KT M05/M08 A3033 RMK A01 T10491080  RH  080%=      5-min Rain = 0
KPMS 091430Z 30010KT M05/M08 A3033 RMK A01 T10461077  RH  080%=      5-min Rain = 0
KPMS 091435Z 30010KT M04/M08 A3033 RMK A01 T10421075  RH  079%=      5-min Rain = 0
KPMS 091440Z 30010KT M04/M07 A3033 RMK A01 T10391073  RH  078%=      5-min Rain = 0
KPMS 091445Z 30010KT M04/M07 A3033 RMK A01 T10361071  RH  077%=      5-min Rain = 0
KPMS 091450Z 31010KT M03/M07 A3033 RMK A01 T10321068  RH  077%=      5-min Rain = 0
KPMS 091455Z 31010KT M03/M07 A3033 RMK A01 T10291065  RH  077%=      5-min Rain = 0
KPMS 091500Z 31011KT M03/M06 A3033 RMK A01 T10251064  RH  076%=      5-min Rain = 0
KPMS 091505Z 31012KT M02/M06 A3034 RMK A01 T10221062  RH  075%=      5-min Rain = 0
KPMS 091510Z 31010KT M02/M06 A3034 RMK A01 T10201058  RH  076%=      5-min Rain = 0
KPMS 091515Z 31010KT M02/M06 A3034 RMK A01 T10171057  RH  075%=      5-min Rain = 0
KPMS 091520Z 31010KT M01/M06 A3034 RMK A01 T10131055  RH  074%=      5-min Rain = 0
KPMS 091525Z 31010KT M01/M05 A3035 RMK A01 T10101053  RH  073%=      5-min Rain = 0
KPMS 091530Z 30009KT M01/M05 A3035 RMK A01 T10061051  RH  072%=      5-min Rain = 0
KPMS 091535Z 31008KT M00/M05 A3035 RMK A01 T10021048  RH  072%=      5-min Rain = 0
KPMS 091540Z 30008KT 00/M05 A3035 RMK A01 T00021048  RH  070%=      5-min Rain = 0
KPMS 091545Z 30008KT 00/M05 A3035 RMK A01 T00041049  RH  068%=      5-min Rain = 0
KPMS 091550Z 31007KT 01/M05 A3035 RMK A01 T00081046  RH  068%=      5-min Rain = 0
KPMS 091555Z 30008KT 01/M05 A3036 RMK A01 T00111046  RH  066%=      5-min Rain = 0
KPMS 091600Z 30009KT 01/M05 A3036 RMK A01 T00111049  RH  065%=      5-min Rain = 0
KPMS 091605Z 29007KT 02/M05 A3037 RMK A01 T00161047  RH  064%=      5-min Rain = 0
KPMS 091610Z 30008KT 02/M05 A3037 RMK A01 T00191047  RH  062%=      5-min Rain = 0
KPMS 091615Z 30009KT 02/M05 A3037 RMK A01 T00211048  RH  061%=      5-min Rain = 0
KPMS 091620Z 30006KT 02/M05 A3037 RMK A01 T00241047  RH  060%=      5-min Rain = 0
KPMS 091625Z 30007KT 03/M05 A3037 RMK A01 T00281047  RH  058%=      5-min Rain = 0
KPMS 091630Z 31009KT 03/M05 A3037 RMK A01 T00321047  RH  057%=      5-min Rain = 0
KPMS 091635Z 30010KT 03/M05 A3037 RMK A01 T00341048  RH  056%=      5-min Rain = 0
KPMS 091640Z 30009KT 03/M05 A3037 RMK A01 T00341049  RH  055%=      5-min Rain = 0
KPMS 091645Z 31010KT 04/M05 A3037 RMK A01 T00351049  RH  055%=      5-min Rain = 0
KPMS 091650Z 31010KT 04/M05 A3038 RMK A01 T00371048  RH  054%=      5-min Rain = 0
KPMS 091655Z 32012KT 04/M05 A3038 RMK A01 T00391050  RH  053%=      5-min Rain = 0
KPMS 091700Z 32012KT 04/M05 A3038 RMK A01 T00391049  RH  053%=      5-min Rain = 0
KPMS 091705Z 31009KT 04/M05 A3037 RMK A01 T00391048  RH  053%=      5-min Rain = 0
KPMS 091710Z 33010KT 04/M05 A3037 RMK A01 T00421048  RH  053%=      5-min Rain = 0
KPMS 091715Z 34010KT 05/M05 A3037 RMK A01 T00451046  RH  052%=      5-min Rain = 0
KPMS 091720Z 33010KT 05/M05 A3037 RMK A01 T00471046  RH  052%=      5-min Rain = 0
KPMS 091725Z 33008KT 05/M05 A3036 RMK A01 T00461046  RH  052%=      5-min Rain = 0
KPMS 091730Z 33007KT 05/M05 A3036 RMK A01 T00461046  RH  052%=      5-min Rain = 0
KPMS 091735Z 34008KT 05/M05 A3036 RMK A01 T00491045  RH  051%=      5-min Rain = 0
KPMS 091740Z 34008G13KT 05/M05 A3036 RMK A01 T00501045  RH  051%=      5-min Rain = 0
KPMS 091745Z 33007KT 05/M05 A3035 RMK A01 T00491045  RH  051%=      5-min Rain = 0
KPMS 091750Z 34007KT 05/M04 A3035 RMK A01 T00531044  RH  050%=      5-min Rain = 0
KPMS 091755Z 35007KT 05/M05 A3035 RMK A01 T00531045  RH  050%=      5-min Rain = 0
KPMS 091800Z 34007KT 06/M04 A3035 RMK A01 T00561042  RH  050%=      5-min Rain = 0
KPMS 091805Z 32007KT 06/M04 A3035 RMK A01 T00571042  RH  049%=      5-min Rain = 0
KPMS 091810Z 32007KT 06/M04 A3035 RMK A01 T00591043  RH  049%=      5-min Rain = 0
KPMS 091815Z 34006KT 06/M04 A3035 RMK A01 T00581044  RH  048%=      5-min Rain = 0
KPMS 091820Z 34004KT 06/M05 A3034 RMK A01 T00601045  RH  047%=      5-min Rain = 0
KPMS 091825Z 32005KT 06/M04 A3034 RMK A01 T00611043  RH  048%=      5-min Rain = 0
KPMS 091830Z 32004KT 07/M04 A3034 RMK A01 T00651044  RH  046%=      5-min Rain = 0
KPMS 091835Z 32006KT 07/M04 A3033 RMK A01 T00661044  RH  046%=      5-min Rain = 0
KPMS 091840Z 34004KT 07/M05 A3033 RMK A01 T00661045  RH  045%=      5-min Rain = 0
KPMS 091845Z 32004KT 07/M04 A3032 RMK A01 T00681044  RH  045%=      5-min Rain = 0
KPMS 091850Z 33003KT 07/M04 A3032 RMK A01 T00721043  RH  044%=      5-min Rain = 0
KPMS 091855Z 34005KT 08/M05 A3032 RMK A01 T00761045  RH  043%=      5-min Rain = 0
KPMS 091900Z 32002KT 08/M05 A3032 RMK A01 T00771045  RH  042%=      5-min Rain = 0
KPMS 091905Z 32005KT 08/M05 A3032 RMK A01 T00781045  RH  042%=      5-min Rain = 0
KPMS 091910Z 33007KT 08/M05 A3032 RMK A01 T00781046  RH  042%=      5-min Rain = 0
KPMS 091915Z 34003KT 08/M05 A3031 RMK A01 T00771046  RH  042%=      5-min Rain = 0
KPMS 091920Z 32005KT 08/M05 A3031 RMK A01 T00811047  RH  040%=      5-min Rain = 0
KPMS 091925Z 31005KT 08/M05 A3031 RMK A01 T00781050  RH  040%=      5-min Rain = 0
KPMS 091930Z 33004KT 08/M05 A3031 RMK A01 T00801050  RH  040%=      5-min Rain = 0
KPMS 091935Z 34004KT 08/M05 A3031 RMK A01 T00801053  RH  039%=      5-min Rain = 0
KPMS 091940Z 33004KT 08/M05 A3031 RMK A01 T00811052  RH  039%=      5-min Rain = 0
KPMS 091945Z 34005KT 08/M05 A3031 RMK A01 T00811054  RH  038%=      5-min Rain = 0
KPMS 091950Z 31002KT 08/M06 A303 RMK A01 T00831057  RH  037%=      5-min Rain = 0
KPMS 091955Z 31005KT 08/M06 A303 RMK A01 T00841055  RH  037%=      5-min Rain = 0
KPMS 092000Z 32005KT 09/M06 A303 RMK A01 T00871060  RH  035%=      5-min Rain = 0
KPMS 092005Z 33006KT 09/M07 A303 RMK A01 T00871065  RH  034%=      5-min Rain = 0
KPMS 092010Z 30002G7KT 09/M06 A303 RMK A01 T00871062  RH  035%=      5-min Rain = 0
KPMS 092015Z 36004KT 09/M07 A303 RMK A01 T00911065  RH  033%=      5-min Rain = 0
KPMS 092020Z 34004KT 09/M07 A303 RMK A01 T00921067  RH  032%=      5-min Rain = 0
KPMS 092025Z 34004KT 09/M07 A303 RMK A01 T00911066  RH  033%=      5-min Rain = 0
KPMS 092030Z 35006KT 10/M07 A303 RMK A01 T00951065  RH  032%=      5-min Rain = 0
KPMS 092035Z 32006KT 09/M07 A303 RMK A01 T00941066  RH  032%=      5-min Rain = 0
KPMS 092040Z 33005KT 09/M07 A303 RMK A01 T00931071  RH  031%=      5-min Rain = 0
KPMS 092045Z 34006KT 10/M07 A303 RMK A01 T00951069  RH  031%=      5-min Rain = 0
KPMS 092050Z 36005KT 10/M07 A303 RMK A01 T00971074  RH  030%=      5-min Rain = 0
KPMS 092055Z 35006KT 10/M08 A303 RMK A01 T00961075  RH  029%=      5-min Rain = 0
KPMS 092100Z 00006G11KT 10/M08 A303 RMK A01 T00971076  RH  029%=      5-min Rain = 0
KPMS 092105Z 34007KT 10/M08 A303 RMK A01 T00971080  RH  028%=      5-min Rain = 0
KPMS 092110Z 35007KT 10/M08 A303 RMK A01 T00971081  RH  028%=      5-min Rain = 0
KPMS 092115Z 00007KT 10/M09 A303 RMK A01 T01001085  RH  027%=      5-min Rain = 0
KPMS 092120Z 34008G14KT 10/M08 A303 RMK A01 T00991084  RH  027%=      5-min Rain = 0
KPMS 092125Z 00007KT 10/M09 A303 RMK A01 T01001086  RH  026%=      5-min Rain = 0
KPMS 092130Z 02007KT 10/M09 A303 RMK A01 T01011093  RH  025%=      5-min Rain = 0
KPMS 092135Z 00007KT 10/M09 A303 RMK A01 T00981091  RH  026%=      5-min Rain = 0
KPMS 092140Z 35006KT 10/M08 A303 RMK A01 T00951083  RH  028%=      5-min Rain = 0
KPMS 092145Z 01006KT 10/M08 A303 RMK A01 T00951083  RH  028%=      5-min Rain = 0
KPMS 092150Z 00005KT 10/M08 A303 RMK A01 T00951082  RH  028%=      5-min Rain = 0
KPMS 092155Z 00007KT 10/M08 A303 RMK A01 T00951081  RH  028%=      5-min Rain = 0
KPMS 092200Z 00005KT 10/M08 A303 RMK A01 T00951080  RH  029%=      5-min Rain = 0
KPMS 092205Z 35005KT 09/M08 A303 RMK A01 T00931078  RH  029%=      5-min Rain = 0
KPMS 092210Z 02007KT 09/M08 A303 RMK A01 T00921081  RH  029%=      5-min Rain = 0
KPMS 092215Z 02006KT 09/M08 A303 RMK A01 T00921082  RH  029%=      5-min Rain = 0
KPMS 092220Z 01007KT 09/M08 A303 RMK A01 T00921079  RH  030%=      5-min Rain = 0
KPMS 092225Z 01008KT 09/M08 A3031 RMK A01 T00911076  RH  030%=      5-min Rain = 0
KPMS 092230Z 01008KT 09/M08 A3031 RMK A01 T00891075  RH  031%=      5-min Rain = 0
KPMS 092235Z 02008KT 09/M07 A3031 RMK A01 T00891074  RH  031%=      5-min Rain = 0
KPMS 092240Z 01007KT 09/M07 A3031 RMK A01 T00881074  RH  032%=      5-min Rain = 0
KPMS 092245Z 02007KT 09/M07 A3031 RMK A01 T00861074  RH  032%=      5-min Rain = 0
KPMS 092250Z 01006KT 08/M07 A3031 RMK A01 T00841074  RH  032%=      5-min Rain = 0
KPMS 092255Z 01006KT 08/M08 A3031 RMK A01 T00831075  RH  032%=      5-min Rain = 0
KPMS 092300Z 01006KT 08/M08 A3031 RMK A01 T00801075  RH  033%=      5-min Rain = 0
KPMS 092305Z 02006KT 08/M08 A3032 RMK A01 T00771075  RH  034%=      5-min Rain = 0
KPMS 092310Z 02005KT 07/M08 A3032 RMK A01 T00731075  RH  034%=      5-min Rain = 0
KPMS 092315Z 02005KT 07/M08 A3032 RMK A01 T00701076  RH  035%=      5-min Rain = 0
KPMS 092320Z 02005KT 07/M08 A3032 RMK A01 T00671076  RH  036%=      5-min Rain = 0
KPMS 092325Z 02005KT 06/M08 A3032 RMK A01 T00631076  RH  037%=      5-min Rain = 0
KPMS 092330Z 01004KT 06/M08 A3032 RMK A01 T00581075  RH  038%=      5-min Rain = 0
KPMS 092335Z 01004KT 06/M07 A3032 RMK A01 T00561074  RH  039%=      5-min Rain = 0
KPMS 092340Z 02005KT 05/M08 A3032 RMK A01 T00541075  RH  039%=      5-min Rain = 0
KPMS 092345Z 01004KT 05/M07 A3032 RMK A01 T00501074  RH  041%=      5-min Rain = 0
KPMS 092350Z 01004KT 05/M07 A3032 RMK A01 T00471072  RH  042%=      5-min Rain = 0
KPMS 092355Z 00003KT 05/M07 A3032 RMK A01 T00471071  RH  043%=      5-min Rain = 0
KPMS 100000Z 36004KT 05/M07 A3033 RMK A01 T00461071  RH  043%=      5-min Rain = 0
KPMS 100005Z 36003KT 04/M07 A3033 RMK A01 T00441071  RH  043%=      5-min Rain = 0
KPMS 100010Z 35004KT 05/M07 A3033 RMK A01 T00451070  RH  043%=      5-min Rain = 0
KPMS 100015Z 35003KT 05/M07 A3034 RMK A01 T00461070  RH  043%=      5-min Rain = 0
KPMS 100020Z 34003KT 05/M07 A3034 RMK A01 T00451070  RH  044%=      5-min Rain = 0
KPMS 100025Z 34003KT 04/M07 A3034 RMK A01 T00421069  RH  045%=      5-min Rain = 0
KPMS 100030Z 36003KT 04/M07 A3034 RMK A01 T00401069  RH  045%=      5-min Rain = 0
KPMS 100035Z 35003KT 04/M07 A3034 RMK A01 T00381070  RH  046%=      5-min Rain = 0
KPMS 100040Z 01002KT 04/M07 A3033 RMK A01 T00371068  RH  047%=      5-min Rain = 0
KPMS 100045Z 02002KT 04/M07 A3033 RMK A01 T00391069  RH  046%=      5-min Rain = 0
KPMS 100050Z 02002KT 04/M07 A3033 RMK A01 T00391069  RH  046%=      5-min Rain = 0
KPMS 100055Z 01001KT 03/M07 A3033 RMK A01 T00341070  RH  047%=      5-min Rain = 0
KPMS 100100Z 32000KT 03/M07 A3033 RMK A01 T00311069  RH  048%=      5-min Rain = 0
KPMS 100105Z 30001KT 03/M07 A3033 RMK A01 T00301066  RH  050%=      5-min Rain = 0
KPMS 100110Z 31002KT 02/M07 A3033 RMK A01 T00241066  RH  052%=      5-min Rain = 0
KPMS 100115Z 31001KT 02/M07 A3033 RMK A01 T00221067  RH  052%=      5-min Rain = 0
KPMS 100120Z 31002KT 02/M07 A3033 RMK A01 T00241068  RH  051%=      5-min Rain = 0
KPMS 100125Z 31001KT 02/M07 A3033 RMK A01 T00231068  RH  051%=      5-min Rain = 0
KPMS 100130Z 31001KT 02/M07 A3033 RMK A01 T00241068  RH  051%=      5-min Rain = 0
KPMS 100135Z 32001KT 02/M07 A3033 RMK A01 T00231068  RH  051%=      5-min Rain = 0
KPMS 100140Z 27001KT 02/M07 A3033 RMK A01 T00241068  RH  051%=      5-min Rain = 0
KPMS 100145Z 25001KT 02/M07 A3033 RMK A01 T00241067  RH  051%=      5-min Rain = 0
KPMS 100150Z 24002KT 02/M07 A3033 RMK A01 T00221065  RH  053%=      5-min Rain = 0
KPMS 100155Z 25003KT 02/M06 A3033 RMK A01 T00211063  RH  054%=      5-min Rain = 0
KPMS 100200Z 25003KT 02/M06 A3033 RMK A01 T00191063  RH  055%=      5-min Rain = 0
KPMS 100205Z 24003KT 02/M07 A3033 RMK A01 T00231066  RH  052%=      5-min Rain = 0
KPMS 100210Z 24003KT 02/M07 A3033 RMK A01 T00201067  RH  053%=      5-min Rain = 0
KPMS 100215Z 24004KT 02/M07 A3033 RMK A01 T00191068  RH  053%=      5-min Rain = 0
KPMS 100220Z 24005KT 02/M07 A3033 RMK A01 T00161069  RH  054%=      5-min Rain = 0
KPMS 100225Z 25005KT 01/M07 A3034 RMK A01 T00131069  RH  055%=      5-min Rain = 0
KPMS 100230Z 28004KT 01/M07 A3034 RMK A01 T00121067  RH  056%=      5-min Rain = 0
KPMS 100235Z 30004KT 01/M07 A3034 RMK A01 T00111069  RH  056%=      5-min Rain = 0
KPMS 100240Z 31003KT 00/M07 A3035 RMK A01 T00021069  RH  060%=      5-min Rain = 0
KPMS 100245Z 30004KT M00/M07 A3035 RMK A01 T10011070  RH  060%=      5-min Rain = 0
KPMS 100250Z 29003KT M00/M07 A3035 RMK A01 T10021070  RH  061%=      5-min Rain = 0
KPMS 100255Z 28003KT M00/M07 A3035 RMK A01 T10011068  RH  061%=      5-min Rain = 0
KPMS 100300Z 27003KT 00/M07 A3035 RMK A01 T00021067  RH  061%=      5-min Rain = 0
KPMS 100305Z 27004KT 00/M07 A3035 RMK A01 T00041069  RH  059%=      5-min Rain = 0
KPMS 100310Z 27004KT 00/M07 A3035 RMK A01 T00031069  RH  059%=      5-min Rain = 0
KPMS 100315Z 27004KT 01/M07 A3035 RMK A01 T00051069  RH  059%=      5-min Rain = 0
KPMS 100320Z 28004KT 01/M07 A3035 RMK A01 T00071068  RH  058%=      5-min Rain = 0
KPMS 100325Z 28005KT 01/M07 A3035 RMK A01 T00071068  RH  058%=      5-min Rain = 0
KPMS 100330Z 27004KT 01/M07 A3035 RMK A01 T00051069  RH  058%=      5-min Rain = 0
KPMS 100335Z 27004KT 00/M07 A3035 RMK A01 T00041069  RH  058%=      5-min Rain = 0
KPMS 100340Z 27004KT 00/M07 A3035 RMK A01 T00031070  RH  059%=      5-min Rain = 0
KPMS 100345Z 28004KT 00/M07 A3035 RMK A01 T00021069  RH  059%=      5-min Rain = 0
KPMS 100350Z 27004KT 00/M07 A3035 RMK A01 T00011070  RH  060%=      5-min Rain = 0
KPMS 100355Z 27004KT 00/M07 A3035 RMK A01 T00011070  RH  060%=      5-min Rain = 0
KPMS 100400Z 27005KT 00/M07 A3034 RMK A01 T00031069  RH  059%=      5-min Rain = 0
KPMS 100405Z 26004KT 00/M07 A3034 RMK A01 T00041069  RH  058%=      5-min Rain = 0
KPMS 100410Z 26005KT 01/M07 A3034 RMK A01 T00081069  RH  057%=      5-min Rain = 0
KPMS 100415Z 26005KT 01/M07 A3034 RMK A01 T00081069  RH  057%=      5-min Rain = 0
KPMS 100420Z 25005KT 01/M07 A3034 RMK A01 T00081069  RH  057%=      5-min Rain = 0
KPMS 100425Z 26005KT 01/M07 A3034 RMK A01 T00071069  RH  058%=      5-min Rain = 0
KPMS 100430Z 26005KT 01/M07 A3034 RMK A01 T00051069  RH  058%=      5-min Rain = 0
KPMS 100435Z 26005KT 00/M07 A3034 RMK A01 T00031069  RH  059%=      5-min Rain = 0
KPMS 100440Z 26004KT 00/M07 A3034 RMK A01 T00011069  RH  060%=      5-min Rain = 0
KPMS 100445Z 26004KT 00/07 A3034 RMK A01 T00-00-69  RH  061%=      5-min Rain = 0
KPMS 100450Z 27005KT 00/07 A3034 RMK A01 T00-00-69  RH  061%=      5-min Rain = 0
KPMS 100455Z 27005KT 00/07 A3034 RMK A01 T00000-69  RH  060%=      5-min Rain = 0
KPMS 100500Z 27005KT 00/M07 A3034 RMK A01 T00011069  RH  060%=      5-min Rain = 0
KPMS 100505Z 27004KT 00/M07 A3034 RMK A01 T00011068  RH  060%=      5-min Rain = 0
KPMS 100510Z 26004KT 00/07 A3034 RMK A01 T00-00-68  RH  061%=      5-min Rain = 0
KPMS 100515Z 26004KT M00/M07 A3034 RMK A01 T10011068  RH  061%=      5-min Rain = 0
KPMS 100520Z 26004KT 00/07 A3034 RMK A01 T00-00-67  RH  062%=      5-min Rain = 0
KPMS 100525Z 26004KT 00/07 A3033 RMK A01 T00-00-67  RH  062%=      5-min Rain = 0
KPMS 100530Z 25005KT 00/07 A3033 RMK A01 T00-00-67  RH  062%=      5-min Rain = 0
KPMS 100535Z 25005KT 00/M07 A3033 RMK A01 T00021067  RH  060%=      5-min Rain = 0
KPMS 100540Z 25005KT 00/M07 A3033 RMK A01 T00021068  RH  060%=      5-min Rain = 0
KPMS 100545Z 24005KT M00/M07 A3033 RMK A01 T10011069  RH  061%=      5-min Rain = 0
KPMS 100550Z 24005KT 00/07 A3033 RMK A01 T00-00-68  RH  061%=      5-min Rain = 0
KPMS 100555Z 24005KT 00/M07 A3033 RMK A01 T00011068  RH  061%=      5-min Rain = 0

Page generated in 0.009 seconds.